Time;durP1;ratioP1;P1;durP2;ratioP2;P2;SDS_P1;SDS_P2;PMS_P1;PMS_P2;Temp;Humidity;BMP_temperature;BMP_pressure;BME280_temperature;BME280_humidity;BME280_pressure;Samples;Min_cycle;Max_cycle;Signal;HPM_P1;HPM_P2
2022/07/13 00:00:15;;;;;;;1.08;1.00;;;;;;;20.24;58.58;99272.44;4126978;28;20651;-58
2022/07/13 00:02:17;;;;;;;1.40;1.10;;;;;;;20.24;58.71;99266.88;4130305;28;20240;-58
2022/07/13 00:04:19;;;;;;;1.00;1.00;;;;;;;20.25;58.69;99268.53;4117619;28;20300;-58
2022/07/13 00:06:21;;;;;;;1.42;1.02;;;;;;;20.24;58.73;99270.47;4126197;28;20210;-57
2022/07/13 00:08:23;;;;;;;1.40;1.02;;;;;;;20.25;58.58;99274.09;4129519;28;20317;-58
2022/07/13 00:10:25;;;;;;;2.88;1.13;;;;;;;20.24;58.90;99278.00;4121050;28;20241;-58
2022/07/13 00:12:26;;;;;;;1.35;1.25;;;;;;;20.21;59.22;99273.84;4108933;28;20211;-58
2022/07/13 00:14:29;;;;;;;1.10;1.00;;;;;;;20.22;59.14;99275.50;4125382;28;20209;-58
2022/07/13 00:16:30;;;;;;;0.93;0.93;;;;;;;20.21;59.20;99273.00;4127418;28;20235;-58
2022/07/13 00:18:32;;;;;;;1.20;1.00;;;;;;;20.20;59.42;99274.13;4124181;28;20886;-58
2022/07/13 00:20:34;;;;;;;0.95;0.85;;;;;;;20.19;59.54;99266.94;4126950;28;20210;-58
2022/07/13 00:22:36;;;;;;;1.40;0.90;;;;;;;20.14;59.73;99261.41;4127757;28;20217;-58
2022/07/13 00:24:37;;;;;;;0.65;0.65;;;;;;;20.06;59.77;99264.84;4127738;28;20221;-58
2022/07/13 00:26:39;;;;;;;2.05;1.00;;;;;;;19.98;59.76;99257.09;4146916;28;20700;-60
2022/07/13 00:28:41;;;;;;;1.63;0.95;;;;;;;19.93;59.80;99260.78;4129023;28;20295;-58
2022/07/13 00:30:42;;;;;;;1.30;1.13;;;;;;;19.89;60.55;99256.91;4145062;28;20672;-58
2022/07/13 00:32:44;;;;;;;1.10;1.00;;;;;;;19.87;60.22;99255.53;4124549;28;20210;-58
2022/07/13 00:34:46;;;;;;;1.85;0.90;;;;;;;19.85;60.57;99261.38;4126141;28;20210;-58
2022/07/13 00:36:48;;;;;;;1.20;0.90;;;;;;;19.83;60.60;99260.84;4110666;28;20326;-58
2022/07/13 00:38:50;;;;;;;1.40;1.20;;;;;;;19.81;60.70;99257.53;4123778;28;20280;-58
2022/07/13 00:40:51;;;;;;;1.90;0.90;;;;;;;19.78;60.61;99257.31;4124913;28;20210;-58
2022/07/13 00:42:53;;;;;;;1.05;0.90;;;;;;;19.75;60.54;99255.09;4105079;28;20214;-58
2022/07/13 00:44:55;;;;;;;1.60;1.25;;;;;;;19.72;60.65;99253.72;4142873;28;20220;-57
2022/07/13 00:46:57;;;;;;;1.02;0.95;;;;;;;19.68;60.68;99254.59;4124357;28;20257;-58
2022/07/13 00:49:00;;;;;;;1.85;0.90;;;;;;;19.62;60.75;99258.53;4102749;28;20238;-58
2022/07/13 00:51:02;;;;;;;1.02;0.90;;;;;;;19.56;61.02;99251.34;4111208;28;20285;-58
2022/07/13 00:53:05;;;;;;;0.93;0.90;;;;;;;19.51;61.13;99251.41;4121688;28;20268;-57
2022/07/13 00:55:08;;;;;;;1.02;0.98;;;;;;;19.49;61.19;99253.63;4109304;28;20661;-58
2022/07/13 00:57:14;;;;;;;1.00;0.90;;;;;;;19.45;61.01;99258.13;4118314;28;20207;-58
2022/07/13 00:59:15;;;;;;;1.00;0.90;;;;;;;19.43;61.38;99249.25;4121239;28;20221;-57
2022/07/13 01:01:17;;;;;;;0.80;0.80;;;;;;;19.45;61.21;99247.03;4118604;28;20637;-57
2022/07/13 01:03:19;;;;;;;1.13;1.02;;;;;;;19.46;61.30;99248.69;4121384;28;20213;-58
2022/07/13 01:05:20;;;;;;;1.48;0.98;;;;;;;19.37;61.50;99244.88;4142063;28;20798;-57
2022/07/13 01:07:22;;;;;;;1.10;1.00;;;;;;;19.30;61.68;99238.78;4124011;28;20213;-56
2022/07/13 01:09:25;;;;;;;1.05;0.90;;;;;;;19.24;61.71;99234.41;4124707;28;20680;-57
2022/07/13 01:11:27;;;;;;;1.48;1.00;;;;;;;19.22;61.62;99231.09;4142464;28;20217;-58
2022/07/13 01:13:28;;;;;;;0.90;0.80;;;;;;;19.24;61.56;99229.69;4126755;28;20226;-57
2022/07/13 01:15:31;;;;;;;1.95;1.10;;;;;;;19.23;61.50;99232.72;4121427;28;20221;-57
2022/07/13 01:17:35;;;;;;;0.88;0.88;;;;;;;19.23;61.59;99227.19;4108468;28;20211;-57
2022/07/13 01:19:38;;;;;;;0.82;0.80;;;;;;;19.25;61.61;99236.06;4125406;28;20222;-57
2022/07/13 01:21:43;;;;;;;0.80;0.80;;;;;;;19.26;61.62;99232.16;4122992;28;20261;-57
2022/07/13 01:23:44;;;;;;;2.80;1.17;;;;;;;19.30;61.53;99238.78;4136127;28;20209;-57
2022/07/13 01:25:46;;;;;;;1.30;1.00;;;;;;;19.30;61.41;99239.63;4127963;28;20214;-57
2022/07/13 01:27:48;;;;;;;2.25;0.90;;;;;;;19.26;61.70;99243.28;4121724;28;20337;-57
2022/07/13 01:29:51;;;;;;;1.50;0.88;;;;;;;19.25;61.79;99236.88;4122992;28;20303;-58
2022/07/13 01:31:59;;;;;;;1.50;1.00;;;;;;;19.21;62.11;99240.53;4121832;28;20201;-57
2022/07/13 01:34:01;;;;;;;1.15;0.98;;;;;;;19.19;62.21;99237.19;4122117;28;20280;-58
2022/07/13 01:36:03;;;;;;;1.17;0.90;;;;;;;19.15;62.03;99236.09;4137788;28;20209;-57
2022/07/13 01:38:04;;;;;;;0.80;0.80;;;;;;;19.07;62.25;99228.38;4127066;28;20242;-57
2022/07/13 01:40:07;;;;;;;6.32;1.00;;;;;;;18.99;61.65;99231.78;4127911;28;20222;-58
2022/07/13 01:42:09;;;;;;;3.28;0.80;;;;;;;18.90;62.04;99226.00;4141992;28;20580;-58
2022/07/13 01:44:10;;;;;;;0.70;0.70;;;;;;;18.94;61.91;99227.09;4125583;28;20202;-57
2022/07/13 01:46:12;;;;;;;2.90;1.20;;;;;;;19.00;62.13;99223.16;4137650;28;20201;-58
2022/07/13 01:48:14;;;;;;;0.90;0.90;;;;;;;18.52;63.54;99228.69;4124098;28;20206;-57
2022/07/13 01:50:18;;;;;;;0.95;0.95;;;;;;;18.43;63.77;99228.44;4133307;28;20241;-57
2022/07/13 01:52:19;;;;;;;1.00;0.90;;;;;;;18.49;63.54;99229.25;4123788;28;20666;-58
2022/07/13 01:54:21;;;;;;;1.23;0.90;;;;;;;18.50;63.61;99228.13;4121788;28;20210;-58
2022/07/13 01:56:23;;;;;;;0.85;0.85;;;;;;;18.56;63.42;99238.09;4121781;28;20210;-58
2022/07/13 01:58:26;;;;;;;1.08;1.00;;;;;;;18.61;63.13;99233.38;4124800;28;20221;-58
2022/07/13 02:00:29;;;;;;;1.67;0.88;;;;;;;18.65;63.32;99228.09;4121847;28;20409;-58
2022/07/13 02:02:30;;;;;;;3.03;0.90;;;;;;;18.64;63.38;99232.78;4126071;28;20241;-58
2022/07/13 02:04:32;;;;;;;0.80;0.80;;;;;;;18.59;63.21;99220.91;4123747;28;20229;-58
2022/07/13 02:06:34;;;;;;;1.30;1.00;;;;;;;18.54;63.57;99218.16;4105647;28;20211;-58
2022/07/13 02:08:36;;;;;;;0.82;0.80;;;;;;;18.53;63.56;99224.81;4108162;28;20273;-57
2022/07/13 02:10:38;;;;;;;1.20;1.10;;;;;;;18.58;63.54;99216.47;4136123;28;21849;-57
2022/07/13 02:12:40;;;;;;;0.88;0.88;;;;;;;18.58;63.69;99220.06;4125154;28;20256;-58
2022/07/13 02:14:42;;;;;;;1.00;1.00;;;;;;;18.60;63.44;99211.47;4127141;28;20214;-58
2022/07/13 02:16:44;;;;;;;1.02;0.90;;;;;;;18.64;63.31;99218.09;4124039;28;20210;-58
2022/07/13 02:18:45;;;;;;;0.90;0.90;;;;;;;18.62;63.22;99203.69;4121412;28;20213;-57
2022/07/13 02:20:47;;;;;;;2.10;1.13;;;;;;;18.65;63.06;99211.44;4105882;28;20298;-56
2022/07/13 02:22:49;;;;;;;1.40;0.90;;;;;;;18.56;63.15;99204.81;4109070;28;20203;-58
2022/07/13 02:24:51;;;;;;;1.95;1.10;;;;;;;18.57;63.11;99195.41;4123615;28;20210;-57
2022/07/13 02:26:53;;;;;;;0.93;0.85;;;;;;;18.60;62.96;99200.38;4121421;28;20692;-57
2022/07/13 02:28:54;;;;;;;0.75;0.75;;;;;;;18.59;62.75;99194.00;4140472;28;20307;-57
2022/07/13 02:30:56;;;;;;;1.85;1.05;;;;;;;18.62;62.78;99187.03;4139173;28;20666;-57
2022/07/13 02:36:20;;;;;;;1.08;0.95;;;;;;;18.71;62.45;99185.34;4138692;28;20255;-57
2022/07/13 02:38:21;;;;;;;0.90;0.90;;;;;;;18.72;62.80;99187.00;4119989;28;20214;-58
2022/07/13 02:40:23;;;;;;;1.15;1.02;;;;;;;18.75;62.69;99186.41;4120076;28;20225;-58
2022/07/13 02:42:27;;;;;;;1.17;1.05;;;;;;;18.73;62.77;99174.78;4123901;28;20277;-58
2022/07/13 02:44:29;;;;;;;1.42;1.05;;;;;;;18.72;62.89;99192.56;4140969;28;20213;-58
2022/07/13 02:46:31;;;;;;;1.42;0.95;;;;;;;18.68;63.21;99185.91;4122700;28;20218;-58
2022/07/13 02:48:33;;;;;;;1.88;1.20;;;;;;;18.58;63.47;99195.09;4121934;28;20582;-58
2022/07/13 02:50:34;;;;;;;1.27;1.08;;;;;;;18.55;63.72;99192.06;4121241;28;20230;-57
2022/07/13 02:52:37;;;;;;;1.00;1.00;;;;;;;18.50;63.28;99189.31;4119530;28;20237;-58
2022/07/13 02:54:38;;;;;;;1.05;0.90;;;;;;;18.48;63.44;99186.00;4121010;28;20609;-57
2022/07/13 02:56:41;;;;;;;1.00;1.00;;;;;;;18.46;63.67;99185.47;4141864;28;20948;-57
2022/07/13 02:58:42;;;;;;;1.25;1.08;;;;;;;18.44;63.92;99187.72;4123249;28;20228;-58
2022/07/13 03:00:44;;;;;;;3.80;0.60;;;;;;;18.39;63.77;99194.09;4123909;28;20221;-58
2022/07/13 03:02:46;;;;;;;3.50;1.20;;;;;;;18.36;63.97;99193.81;4121764;28;20236;-58
2022/07/13 03:04:47;;;;;;;1.02;1.02;;;;;;;18.29;63.92;99193.28;4123773;28;20292;-57
2022/07/13 03:06:49;;;;;;;1.90;1.10;;;;;;;18.19;63.92;99182.25;4121330;28;20618;-57
2022/07/13 03:08:51;;;;;;;2.38;1.20;;;;;;;18.14;64.21;99185.03;4121523;28;20281;-58
2022/07/13 03:10:52;;;;;;;2.40;1.00;;;;;;;18.12;64.34;99188.06;4123913;28;20213;-58
2022/07/13 03:12:55;;;;;;;1.45;1.00;;;;;;;18.05;64.38;99189.50;4123184;28;20238;-58
2022/07/13 03:14:57;;;;;;;1.08;0.95;;;;;;;18.01;64.46;99191.16;4123751;28;20217;-58
2022/07/13 03:16:58;;;;;;;0.98;0.98;;;;;;;17.98;65.11;99183.44;4119328;28;20210;-58
2022/07/13 03:19:00;;;;;;;0.80;0.80;;;;;;;17.93;65.16;99183.44;4106370;28;20219;-57
2022/07/13 03:21:06;;;;;;;1.08;1.00;;;;;;;17.93;65.06;99188.97;4121705;28;20206;-57
2022/07/13 03:23:08;;;;;;;1.08;0.90;;;;;;;17.93;65.01;99188.97;4122124;28;20308;-56
2022/07/13 03:25:11;;;;;;;2.85;1.20;;;;;;;17.90;64.71;99190.34;4121342;28;20206;-58
2022/07/13 03:27:20;;;;;;;1.00;1.00;;;;;;;17.86;65.14;99189.25;4140212;28;20568;-57
2022/07/13 03:29:22;;;;;;;1.67;1.00;;;;;;;17.80;65.43;99184.81;4102753;28;20294;-58
2022/07/13 03:31:24;;;;;;;1.40;1.20;;;;;;;17.76;65.28;99183.75;4123501;28;20211;-57
2022/07/13 03:33:26;;;;;;;0.90;0.85;;;;;;;17.75;65.34;99181.25;4124108;28;20218;-57
2022/07/13 03:35:28;;;;;;;0.93;0.93;;;;;;;17.73;65.08;99177.94;4120947;28;20251;-57
2022/07/13 03:37:29;;;;;;;1.23;1.02;;;;;;;17.67;65.41;99179.91;4119014;28;20587;-57
2022/07/13 03:39:31;;;;;;;1.02;0.90;;;;;;;17.68;65.28;99176.00;4145242;28;20770;-58
2022/07/13 03:41:33;;;;;;;1.35;1.25;;;;;;;17.39;65.90;99174.13;4114010;28;20566;-57
2022/07/13 03:43:34;;;;;;;2.42;1.10;;;;;;;17.41;65.87;99164.44;4128647;28;20210;-58
2022/07/13 03:45:36;;;;;;;2.33;1.27;;;;;;;17.15;66.41;99164.66;4128972;28;20214;-57
2022/07/13 03:47:38;;;;;;;1.02;1.00;;;;;;;16.70;67.91;99164.63;4111675;28;20583;-58
2022/07/13 03:49:40;;;;;;;0.90;0.90;;;;;;;16.47;68.78;99156.84;4141386;28;20225;-58
2022/07/13 03:51:42;;;;;;;1.15;1.00;;;;;;;16.58;68.67;99161.31;4124832;28;20201;-58
2022/07/13 03:53:44;;;;;;;1.23;1.13;;;;;;;16.66;68.45;99163.53;4127845;28;20248;-58
2022/07/13 03:55:46;;;;;;;1.40;1.17;;;;;;;16.92;67.80;99154.16;4125030;28;20206;-57
2022/07/13 03:57:47;;;;;;;1.10;1.10;;;;;;;17.05;67.27;99159.16;4124564;28;20256;-58
2022/07/13 03:59:49;;;;;;;1.08;1.02;;;;;;;17.15;66.79;99161.91;4126441;28;20229;-58
2022/07/13 04:01:51;;;;;;;1.00;0.90;;;;;;;17.25;66.57;99159.16;4124493;28;20218;-57
2022/07/13 04:03:52;;;;;;;1.08;0.93;;;;;;;17.35;66.35;99159.13;4125074;28;20206;-57
2022/07/13 04:05:54;;;;;;;1.77;1.30;;;;;;;17.42;66.37;99152.25;4136765;28;20205;-57
2022/07/13 04:07:56;;;;;;;1.25;0.85;;;;;;;17.51;65.75;99153.34;4120593;28;20505;-58
2022/07/13 04:09:58;;;;;;;0.90;0.90;;;;;;;17.59;65.61;99160.25;4124415;28;20234;-57
2022/07/13 04:12:00;;;;;;;2.45;1.00;;;;;;;17.65;65.58;99161.91;4122011;28;20210;-58
2022/07/13 04:14:01;;;;;;;1.73;1.10;;;;;;;17.72;65.50;99159.69;4128378;28;20253;-57
2022/07/13 04:16:03;;;;;;;1.52;0.88;;;;;;;17.77;65.31;99151.31;4125924;28;20214;-56
2022/07/13 04:18:05;;;;;;;1.55;1.45;;;;;;;17.80;65.37;99157.13;4125159;28;20670;-58
2022/07/13 04:20:08;;;;;;;2.28;2.17;;;;;;;17.85;65.03;99159.91;4125348;28;20230;-58
2022/07/13 04:22:10;;;;;;;2.05;1.00;;;;;;;17.85;65.39;99161.84;4111258;28;20246;-58
2022/07/13 04:24:11;;;;;;;3.45;1.17;;;;;;;17.85;65.22;99159.09;4109411;28;20202;-58
2022/07/13 04:26:13;;;;;;;1.98;1.00;;;;;;;17.87;65.41;99159.63;4135784;28;20547;-57
2022/07/13 04:28:15;;;;;;;1.00;0.90;;;;;;;17.87;65.36;99168.78;4109889;28;20742;-57
2022/07/13 04:30:16;;;;;;;2.25;1.10;;;;;;;17.88;65.63;99170.44;4124211;28;20356;-58
2022/07/13 04:32:18;;;;;;;2.33;1.08;;;;;;;17.89;65.35;99174.84;4124067;28;20272;-57
2022/07/13 04:34:20;;;;;;;3.22;0.80;;;;;;;17.92;65.22;99176.22;4142447;28;20213;-58
2022/07/13 04:36:21;;;;;;;1.38;1.00;;;;;;;17.96;65.21;99166.22;4124316;28;20202;-58
2022/07/13 04:38:23;;;;;;;3.50;1.00;;;;;;;17.98;64.97;99169.56;4122797;28;20221;-58
2022/07/13 04:40:26;;;;;;;2.40;1.30;;;;;;;17.98;65.01;99164.03;4106954;28;20226;-58
2022/07/13 04:42:27;;;;;;;1.50;0.93;;;;;;;18.00;65.04;99167.34;4121955;28;20218;-58
2022/07/13 04:44:29;;;;;;;1.30;1.20;;;;;;;17.99;64.88;99171.22;4119056;28;20206;-58
2022/07/13 04:46:36;;;;;;;1.38;1.20;;;;;;;18.01;64.76;99169.84;4124222;28;20302;-58
2022/07/13 04:48:38;;;;;;;3.92;1.10;;;;;;;18.04;64.80;99174.81;4123973;28;20210;-57
2022/07/13 04:50:39;;;;;;;1.52;1.00;;;;;;;18.07;64.71;99171.47;4123878;28;20214;-58
2022/07/13 04:52:41;;;;;;;0.80;0.80;;;;;;;18.10;64.57;99172.84;4120352;28;20578;-58
2022/07/13 04:54:44;;;;;;;1.55;0.80;;;;;;;18.14;64.46;99168.41;4123087;28;20637;-58
2022/07/13 04:56:46;;;;;;;1.80;1.00;;;;;;;18.17;64.44;99170.59;4141115;28;20206;-58
2022/07/13 04:58:47;;;;;;;2.00;0.90;;;;;;;18.19;64.56;99173.94;4122861;28;20625;-58
2022/07/13 05:00:49;;;;;;;3.80;0.93;;;;;;;18.20;64.77;99178.34;4123702;28;20197;-58
2022/07/13 05:03:11;;;;;;;1.25;1.00;;;;;;;18.21;64.63;99171.69;4129352;28;20271;-58
2022/07/13 05:05:12;;;;;;;1.10;1.00;;;;;;;18.20;64.77;99179.19;4111601;28;20294;-58
2022/07/13 05:07:14;;;;;;;0.98;0.90;;;;;;;18.22;64.56;99176.97;4125816;28;20763;-58
2022/07/13 05:09:16;;;;;;;1.10;0.98;;;;;;;18.25;64.48;99181.91;4126031;28;20748;-58
2022/07/13 05:11:17;;;;;;;0.75;0.75;;;;;;;18.28;64.41;99174.97;4125312;28;20206;-58
2022/07/13 05:13:19;;;;;;;1.13;0.90;;;;;;;18.31;64.31;99185.56;4124114;28;20210;-58
2022/07/13 05:15:25;;;;;;;4.03;0.80;;;;;;;18.35;64.33;99189.41;4124944;28;20203;-58
2022/07/13 05:17:27;;;;;;;1.50;1.10;;;;;;;18.40;64.29;99195.78;4144027;28;20639;-58
2022/07/13 05:19:29;;;;;;;1.05;0.80;;;;;;;18.43;64.34;99191.56;4124978;28;20227;-57
2022/07/13 05:21:30;;;;;;;2.53;1.27;;;;;;;18.47;64.54;99184.34;4140823;28;20562;-58
2022/07/13 05:23:34;;;;;;;1.27;0.98;;;;;;;18.50;64.58;99178.22;4141871;28;20248;-58
2022/07/13 05:25:35;;;;;;;1.83;0.90;;;;;;;18.54;64.41;99184.88;4124991;28;20219;-58
2022/07/13 05:27:37;;;;;;;5.32;1.08;;;;;;;18.56;64.53;99194.56;4141653;28;20208;-58
2022/07/13 05:29:39;;;;;;;3.42;1.20;;;;;;;18.59;64.27;99187.63;4122527;28;20265;-57
2022/07/13 05:31:40;;;;;;;5.03;1.17;;;;;;;18.62;64.24;99189.81;4124231;28;20721;-57
2022/07/13 05:33:42;;;;;;;1.63;0.90;;;;;;;18.64;64.46;99190.38;4124970;28;20218;-58
2022/07/13 05:35:44;;;;;;;2.50;0.95;;;;;;;18.61;65.16;99185.38;4124554;28;20700;-58
2022/07/13 05:37:47;;;;;;;1.20;1.08;;;;;;;18.61;64.90;99185.38;4124169;28;20214;-57
2022/07/13 05:39:49;;;;;;;2.08;0.93;;;;;;;18.47;65.28;99185.19;4124170;28;20230;-58
2022/07/13 05:41:51;;;;;;;2.25;1.10;;;;;;;18.32;65.83;99181.66;4113005;28;21067;-58
2022/07/13 05:43:52;;;;;;;1.70;1.10;;;;;;;18.20;65.81;99183.88;4144758;28;20213;-57
2022/07/13 05:45:54;;;;;;;11.00;1.98;;;;;;;18.37;65.21;99187.16;4126123;28;20218;-58
2022/07/13 05:47:56;;;;;;;11.95;1.98;;;;;;;18.42;64.82;99188.00;4137500;28;20300;-58
2022/07/13 05:49:58;;;;;;;33.53;2.35;;;;;;;18.47;64.55;99189.91;4125447;28;20281;-57
2022/07/13 05:51:59;;;;;;;26.10;3.40;;;;;;;18.57;64.47;99187.91;4125033;28;20653;-57
2022/07/13 05:54:01;;;;;;;23.65;2.65;;;;;;;18.72;64.15;99189.78;4122082;28;20666;-58
2022/07/13 05:56:23;;;;;;;4.40;1.83;;;;;;;18.82;64.19;99184.16;4126543;28;20239;-58
2022/07/13 05:58:25;;;;;;;19.08;2.92;;;;;;;18.82;64.69;99189.69;4122227;28;20764;-58
2022/07/13 06:00:27;;;;;;;2.03;1.33;;;;;;;18.89;65.24;99182.72;4125142;28;20230;-58
2022/07/13 06:02:29;;;;;;;8.00;1.75;;;;;;;19.00;65.16;99189.03;4123885;28;22056;-58
2022/07/13 06:04:31;;;;;;;2.47;1.15;;;;;;;19.04;65.79;99179.84;4125279;28;20240;-57
2022/07/13 06:06:32;;;;;;;4.57;2.00;;;;;;;19.16;65.88;99182.25;4123978;28;20838;-58
2022/07/13 06:08:34;;;;;;;3.42;2.15;;;;;;;19.04;65.64;99185.38;4123698;28;20205;-58
2022/07/13 06:10:36;;;;;;;13.05;1.77;;;;;;;19.02;63.19;99175.69;4124480;28;20222;-58
2022/07/13 06:12:38;;;;;;;13.70;2.35;;;;;;;18.89;63.03;99181.88;4122628;28;20218;-58
2022/07/13 06:14:40;;;;;;;6.15;1.80;;;;;;;18.83;62.41;99177.47;4123672;28;20206;-58
2022/07/13 06:16:42;;;;;;;6.82;2.45;;;;;;;18.99;62.55;99187.38;4122946;28;20648;-58
2022/07/13 06:18:44;;;;;;;8.60;1.63;;;;;;;19.11;62.99;99179.53;4122051;28;20617;-58
2022/07/13 06:20:45;;;;;;;11.38;1.85;;;;;;;19.24;63.56;99185.28;4123745;28;20807;-58
2022/07/13 06:23:09;;;;;;;8.15;1.95;;;;;;;19.40;64.06;99183.19;4122133;28;20256;-58
2022/07/13 06:25:09;;;;;;;5.03;1.70;;;;;;;19.41;62.70;99184.84;4124268;28;20274;-58
2022/07/13 06:27:11;;;;;;;4.32;1.45;;;;;;;19.48;61.80;99179.78;4107027;28;20206;-57
2022/07/13 06:29:12;;;;;;;4.85;1.45;;;;;;;19.42;61.30;99180.94;4124456;28;21198;-58
2022/07/13 06:31:14;;;;;;;2.85;1.50;;;;;;;19.68;61.14;99182.38;4119261;28;20657;-58
2022/07/13 06:33:16;;;;;;;2.53;1.20;;;;;;;19.66;60.76;99182.66;4115448;28;20206;-58
2022/07/13 06:35:17;;;;;;;3.78;1.30;;;;;;;19.75;61.50;99180.94;4122807;28;20217;-58
2022/07/13 06:37:19;;;;;;;3.45;1.92;;;;;;;19.84;60.52;99184.72;4119303;28;20595;-59
2022/07/13 06:39:41;;;;;;;6.10;1.63;;;;;;;19.97;59.88;99177.66;4124217;28;20245;-59
2022/07/13 06:41:44;;;;;;;5.15;1.30;;;;;;;20.08;60.17;99185.59;4122451;28;20212;-60
2022/07/13 06:43:46;;;;;;;5.03;1.60;;;;;;;20.30;60.40;99188.66;4108595;28;20606;-58
2022/07/13 06:45:48;;;;;;;5.53;1.70;;;;;;;20.40;60.05;99204.41;4138404;28;20263;-58
2022/07/13 06:47:51;;;;;;;1.85;1.20;;;;;;;20.28;58.83;99196.50;4139999;28;20203;-59
2022/07/13 06:49:53;;;;;;;6.82;1.10;;;;;;;20.40;59.18;99193.28;4101046;28;20908;-59
2022/07/13 06:51:55;;;;;;;5.70;2.20;;;;;;;20.51;59.80;99194.81;4121819;28;20305;-59
2022/07/13 06:53:57;;;;;;;4.63;1.27;;;;;;;20.59;58.47;99191.38;4120708;28;20224;-59
2022/07/13 06:55:58;;;;;;;5.38;1.98;;;;;;;20.50;58.20;99188.41;4107602;28;20258;-60
2022/07/13 06:58:00;;;;;;;3.05;1.52;;;;;;;20.50;58.28;99187.59;4120400;28;22621;-59
2022/07/13 07:00:06;;;;;;;2.00;1.40;;;;;;;20.46;58.55;99187.38;4120218;28;20225;-59
2022/07/13 07:02:08;;;;;;;2.65;1.13;;;;;;;20.57;59.00;99193.63;4118673;28;20248;-58
2022/07/13 07:04:10;;;;;;;3.50;1.60;;;;;;;20.76;59.22;99186.94;4118676;28;20274;-59
2022/07/13 07:06:12;;;;;;;2.13;1.88;;;;;;;20.92;58.77;99190.38;4119801;28;20682;-58
2022/07/13 07:08:13;;;;;;;1.83;1.13;;;;;;;21.13;58.51;99192.56;4122890;28;20213;-59
2022/07/13 07:10:15;;;;;;;3.00;1.10;;;;;;;21.23;58.59;99180.44;4122874;28;20233;-59
2022/07/13 07:12:17;;;;;;;2.53;1.25;;;;;;;21.20;58.40;99181.03;4108586;28;20206;-59
2022/07/13 07:14:19;;;;;;;6.68;1.42;;;;;;;21.30;57.74;99186.47;4138005;28;20228;-59
2022/07/13 07:16:20;;;;;;;3.90;1.13;;;;;;;21.53;57.83;99179.94;4146818;28;20204;-59
2022/07/13 07:18:22;;;;;;;4.63;1.05;;;;;;;21.83;58.59;99177.44;4124869;28;20216;-59
2022/07/13 07:20:24;;;;;;;1.73;1.10;;;;;;;21.85;56.57;99182.72;4127129;28;20233;-59
2022/07/13 07:22:26;;;;;;;3.78;1.25;;;;;;;21.96;57.01;99189.75;4129413;28;20212;-59
2022/07/13 07:24:30;;;;;;;3.97;1.17;;;;;;;22.13;57.01;99184.41;4128689;28;20209;-59
2022/07/13 07:26:31;;;;;;;1.15;0.70;;;;;;;22.38;56.23;99181.13;4135438;28;20731;-60
2022/07/13 07:28:33;;;;;;;0.95;0.90;;;;;;;22.64;55.57;99185.06;4128999;28;20217;-59
2022/07/13 07:30:36;;;;;;;1.73;1.00;;;;;;;22.61;54.74;99180.09;4128151;28;20225;-59
2022/07/13 07:32:38;;;;;;;1.70;1.45;;;;;;;22.63;55.10;99186.22;4128071;28;20596;-59
2022/07/13 07:34:40;;;;;;;2.58;1.25;;;;;;;22.76;54.83;99188.16;4146212;28;20574;-59
2022/07/13 07:36:42;;;;;;;2.70;1.38;;;;;;;22.88;55.55;99186.47;4129021;28;20217;-59
2022/07/13 07:38:44;;;;;;;3.83;1.00;;;;;;;22.99;56.24;99192.63;4130758;28;20213;-59
2022/07/13 07:40:45;;;;;;;1.00;0.93;;;;;;;23.07;55.97;99189.94;4129308;28;20198;-59
2022/07/13 07:42:47;;;;;;;2.83;1.40;;;;;;;23.39;55.41;99186.13;4146843;28;20197;-59
2022/07/13 07:44:49;;;;;;;1.27;0.95;;;;;;;23.70;54.91;99187.00;4148781;28;20259;-59
2022/07/13 07:46:51;;;;;;;1.35;1.13;;;;;;;24.18;53.09;99184.00;4113752;28;20214;-60
2022/07/13 07:48:52;;;;;;;1.17;0.75;;;;;;;24.39;52.36;99193.47;4125603;28;20249;-60
2022/07/13 07:50:54;;;;;;;1.88;0.75;;;;;;;24.64;51.21;99181.59;4125422;28;20237;-59
2022/07/13 07:52:56;;;;;;;1.48;0.90;;;;;;;24.70;50.24;99187.84;4112635;28;20220;-63
2022/07/13 07:54:58;;;;;;;1.95;1.10;;;;;;;24.85;50.11;99185.41;4113010;28;20206;-60
2022/07/13 07:57:03;;;;;;;4.72;1.00;;;;;;;24.86;50.05;99189.88;4125364;28;20209;-60
2022/07/13 07:59:04;;;;;;;1.23;0.90;;;;;;;25.18;50.89;99189.41;4123354;28;20315;-59
2022/07/13 08:01:06;;;;;;;1.40;0.82;;;;;;;25.55;50.64;99183.19;4129258;28;20697;-60
2022/07/13 08:03:09;;;;;;;2.58;1.15;;;;;;;25.84;48.20;99183.28;4131232;28;20639;-60
2022/07/13 08:05:10;;;;;;;4.03;1.58;;;;;;;25.81;47.67;99175.56;4126639;28;20206;-60
2022/07/13 08:07:12;;;;;;;1.58;1.23;;;;;;;26.05;48.02;99178.66;4122221;28;20209;-60
2022/07/13 08:09:14;;;;;;;1.35;0.90;;;;;;;25.97;48.40;99170.25;4145237;28;20670;-59
2022/07/13 08:11:20;;;;;;;1.98;0.70;;;;;;;26.06;46.65;99171.06;4128269;28;20638;-60
2022/07/13 08:13:21;;;;;;;1.63;1.20;;;;;;;25.93;47.85;99175.69;4128590;28;20208;-60
2022/07/13 08:15:23;;;;;;;0.70;0.70;;;;;;;25.83;47.78;99170.44;4146770;28;20209;-60
2022/07/13 08:17:25;;;;;;;1.05;0.90;;;;;;;25.80;48.48;99165.47;4130649;28;20209;-60
2022/07/13 08:19:26;;;;;;;0.57;0.57;;;;;;;25.76;48.89;99164.50;4129444;28;20229;-60
2022/07/13 08:21:44;;;;;;;1.27;0.70;;;;;;;25.75;49.39;99162.88;4132410;28;20297;-60
2022/07/13 08:23:51;;;;;;;1.35;1.00;;;;;;;25.64;48.07;99166.31;4129475;28;20276;-59
2022/07/13 08:25:56;;;;;;;6.10;1.10;;;;;;;25.74;46.87;99161.19;4122594;28;20213;-60
2022/07/13 08:27:58;;;;;;;2.67;0.85;;;;;;;25.73;47.64;99159.53;4138173;28;20260;-60
2022/07/13 08:29:59;;;;;;;1.35;0.73;;;;;;;26.04;47.77;99165.78;4130381;28;20304;-60
2022/07/13 08:32:01;;;;;;;2.20;1.02;;;;;;;26.25;48.88;99161.06;4127907;28;20232;-59
2022/07/13 08:38:44;;;;;;;1.15;0.80;;;;;;;26.60;45.11;99161.75;4145505;28;20196;-60
2022/07/13 08:40:46;;;;;;;2.40;0.82;;;;;;;26.89;46.14;99162.56;4128197;28;20662;-60
2022/07/13 08:42:48;;;;;;;3.95;1.00;;;;;;;27.06;46.20;99159.63;4128112;28;20209;-60
2022/07/13 08:44:49;;;;;;;1.20;0.60;;;;;;;27.13;46.14;99162.72;4127700;28;20268;-60
2022/07/13 08:46:51;;;;;;;2.72;0.80;;;;;;;27.25;47.04;99162.00;4129089;28;20202;-60
2022/07/13 08:48:55;;;;;;;1.13;0.77;;;;;;;27.30;45.87;99165.44;4128637;28;20331;-60
2022/07/13 08:50:57;;;;;;;1.77;0.70;;;;;;;27.36;46.02;99163.22;4121304;28;20245;-59
2022/07/13 08:52:59;;;;;;;0.90;0.70;;;;;;;27.43;45.80;99164.31;4104417;28;20206;-60
2022/07/13 08:55:05;;;;;;;1.25;0.77;;;;;;;27.14;45.05;99167.19;4129328;28;20279;-60
2022/07/13 08:57:07;;;;;;;1.17;0.75;;;;;;;27.36;45.90;99169.69;4129057;28;20201;-60
2022/07/13 08:59:09;;;;;;;0.90;0.80;;;;;;;27.53;45.68;99169.50;4144355;28;20835;-60
2022/07/13 09:01:11;;;;;;;4.20;0.90;;;;;;;27.32;44.66;99165.91;4125992;28;20202;-60
2022/07/13 09:03:13;;;;;;;1.08;0.77;;;;;;;27.24;44.80;99161.19;4112392;28;20293;-61
2022/07/13 09:05:18;;;;;;;2.20;0.80;;;;;;;27.65;45.36;99166.75;4126455;28;20241;-60
2022/07/13 09:07:20;;;;;;;0.95;0.90;;;;;;;27.60;43.42;99160.53;4128683;28;20608;-60
2022/07/13 09:09:27;;;;;;;1.50;1.10;;;;;;;27.96;43.01;99164.31;4144219;28;20263;-60
2022/07/13 09:11:49;;;;;;;1.05;0.77;;;;;;;28.03;42.72;99158.09;4131303;28;20249;-60
2022/07/13 09:13:56;;;;;;;1.17;0.70;;;;;;;27.92;42.13;99154.91;4144970;28;20255;-60
2022/07/13 09:16:29;;;;;;;0.90;0.70;;;;;;;28.17;41.66;99161.41;4125743;28;20256;-60
2022/07/13 09:18:35;;;;;;;4.50;0.75;;;;;;;28.43;41.72;99161.94;4127974;28;20247;-59
2022/07/13 09:20:37;;;;;;;0.75;0.60;;;;;;;28.28;41.04;99169.06;4134434;28;20898;-60
2022/07/13 09:22:56;;;;;;;2.85;1.58;;;;;;;28.41;41.39;99156.69;4145021;28;20780;-60
2022/07/13 09:25:00;;;;;;;6.10;1.10;;;;;;;28.55;40.84;99159.97;4127605;28;20237;-60
2022/07/13 09:27:02;;;;;;;2.35;0.95;;;;;;;28.72;41.17;99156.91;4121580;28;21112;-60
2022/07/13 09:29:05;;;;;;;1.45;1.02;;;;;;;28.51;39.91;99156.19;4128362;28;20248;-60
2022/07/13 09:31:07;;;;;;;4.85;0.90;;;;;;;28.52;41.01;99146.56;4127466;28;20224;-59
2022/07/13 09:33:09;;;;;;;1.25;0.77;;;;;;;28.46;41.54;99150.00;4110295;28;20253;-60
2022/07/13 09:35:11;;;;;;;1.08;0.75;;;;;;;28.97;40.35;99149.25;4126199;28;20206;-60
2022/07/13 09:37:14;;;;;;;1.75;0.50;;;;;;;29.42;39.01;99142.22;4127446;28;20201;-60
2022/07/13 09:39:17;;;;;;;0.65;0.50;;;;;;;29.95;37.45;99147.41;4119368;28;20221;-60
2022/07/13 09:41:22;;;;;;;1.85;0.57;;;;;;;29.95;38.84;99138.09;4122406;28;20245;-59
2022/07/13 09:46:10;;;;;;;3.33;0.63;;;;;;;29.77;36.99;99148.91;4121779;28;20204;-60
2022/07/13 09:48:13;;;;;;;0.57;0.38;;;;;;;30.07;36.44;99147.34;4129452;28;20664;-59